createdAt,value
2017-12-30T06:49:13.152Z,5.33
2017-12-30T06:49:53.630Z,5.33
2017-12-30T06:50:53.673Z,5.34
2017-12-30T06:51:53.630Z,5.33
2017-12-30T06:52:54.705Z,5.33
2017-12-30T06:53:53.641Z,5.34
2017-12-30T06:54:54.729Z,5.33
2017-12-30T06:55:53.633Z,5.33
2017-12-30T06:56:53.632Z,5.34
2017-12-30T06:57:53.637Z,5.34
2017-12-30T06:58:53.632Z,5.33
2017-12-30T06:59:53.640Z,5.33
2017-12-30T07:00:53.632Z,5.33
2017-12-30T07:01:53.659Z,5.33
2017-12-30T07:02:53.631Z,5.33
2017-12-30T07:03:53.662Z,5.34
2017-12-30T07:04:53.636Z,5.32
2017-12-30T07:05:53.676Z,5.33
2017-12-30T07:06:53.642Z,5.32
2017-12-30T07:07:53.689Z,5.33
2017-12-30T07:08:53.641Z,5.33
2017-12-30T07:09:54.725Z,5.32
2017-12-30T07:10:53.633Z,5.34
2017-12-30T07:12:00.682Z,5.32
2017-12-30T07:12:53.637Z,5.33
2017-12-30T07:13:53.730Z,5.32
2017-12-30T07:14:53.638Z,5.33
2017-12-30T07:15:53.751Z,5.33
2017-12-30T07:16:53.634Z,5.30
2017-12-30T07:17:53.657Z,5.32
2017-12-30T07:18:53.637Z,5.32
2017-12-30T07:19:59.611Z,5.32
2017-12-30T07:20:53.640Z,5.32
2017-12-30T07:21:54.702Z,5.32
2017-12-30T07:22:53.642Z,5.33
2017-12-30T07:23:53.700Z,5.33
2017-12-30T07:24:53.646Z,5.32
2017-12-30T07:25:53.711Z,5.33
2017-12-30T07:26:53.644Z,5.32
2017-12-30T07:27:54.745Z,5.32
2017-12-30T07:28:53.648Z,5.32
2017-12-30T07:29:53.739Z,5.32
2017-12-30T07:30:53.642Z,5.32
2017-12-30T07:31:53.752Z,5.33
2017-12-30T07:32:53.645Z,5.32
2017-12-30T07:33:53.770Z,5.32
2017-12-30T07:34:53.644Z,5.30
2017-12-30T07:35:54.700Z,5.33
2017-12-30T07:36:53.638Z,5.32
2017-12-30T07:38:15.708Z,5.32
2017-12-30T07:38:53.649Z,5.33
2017-12-30T07:39:54.730Z,5.33
2017-12-30T07:40:53.646Z,5.33
2017-12-30T07:41:55.763Z,5.30
2017-12-30T07:42:53.648Z,5.32
2017-12-30T07:43:53.732Z,5.33
2017-12-30T07:44:53.648Z,5.32
2017-12-30T07:45:53.736Z,5.32
2017-12-30T07:46:53.647Z,5.32
2017-12-30T07:47:54.677Z,5.33
2017-12-30T07:48:53.648Z,5.33
2017-12-30T07:49:53.667Z,5.33
2017-12-30T07:50:53.654Z,5.33
2017-12-30T07:51:54.704Z,5.32
2017-12-30T07:52:53.645Z,5.33
2017-12-30T07:54:04.656Z,5.33
2017-12-30T07:54:53.652Z,5.32
2017-12-30T07:55:54.740Z,5.33
2017-12-30T07:56:53.663Z,5.32
2017-12-30T07:57:55.774Z,5.33
2017-12-30T07:58:53.654Z,5.33
2017-12-30T07:59:54.772Z,5.33
2017-12-30T08:00:53.653Z,5.33
2017-12-30T08:01:53.748Z,5.32
2017-12-30T08:02:53.653Z,5.30
2017-12-30T08:03:55.709Z,5.32
2017-12-30T08:04:53.654Z,5.32
2017-12-30T08:05:54.704Z,5.32
2017-12-30T08:06:53.656Z,5.33
2017-12-30T08:07:53.688Z,5.33
2017-12-30T08:08:53.656Z,5.33
2017-12-30T08:09:55.770Z,5.32
2017-12-30T08:10:53.657Z,5.32
2017-12-30T08:11:53.721Z,5.33
2017-12-30T08:12:53.656Z,5.32
2017-12-30T08:13:53.727Z,5.33
2017-12-30T08:14:53.664Z,5.33
2017-12-30T08:16:00.600Z,5.32
2017-12-30T08:16:53.659Z,5.33
2017-12-30T08:17:54.675Z,5.33
2017-12-30T08:18:53.666Z,5.33
2017-12-30T08:19:53.769Z,5.32
2017-12-30T08:20:53.660Z,5.32
2017-12-30T08:21:53.679Z,5.33
2017-12-30T08:22:53.672Z,5.32
2017-12-30T08:23:53.699Z,5.33
2017-12-30T08:24:53.659Z,5.32
2017-12-30T08:25:53.704Z,5.33
2017-12-30T08:26:53.663Z,5.32
2017-12-30T08:27:53.718Z,5.32
2017-12-30T08:28:53.661Z,5.32
2017-12-30T08:29:54.756Z,5.33
2017-12-30T08:30:53.668Z,5.32
2017-12-30T08:31:53.745Z,5.32
2017-12-30T08:32:53.670Z,5.32
2017-12-30T08:33:53.759Z,5.32
2017-12-30T08:34:53.664Z,5.32
2017-12-30T08:35:54.695Z,5.33
2017-12-30T08:36:53.668Z,5.33
2017-12-30T08:37:53.685Z,5.32
2017-12-30T08:38:53.666Z,5.32
2017-12-30T08:39:53.699Z,5.32
2017-12-30T08:40:53.661Z,5.32
2017-12-30T08:42:04.667Z,5.32
2017-12-30T08:42:53.665Z,5.32
2017-12-30T08:43:54.749Z,5.32
2017-12-30T08:44:53.669Z,5.33
2017-12-30T08:45:53.741Z,5.30
2017-12-30T08:46:53.671Z,5.30
2017-12-30T08:47:53.754Z,5.32
2017-12-30T08:48:53.674Z,5.33
2017-12-30T08:49:53.768Z,5.30
2017-12-30T08:50:53.668Z,5.30
2017-12-30T08:51:53.782Z,5.32
2017-12-30T08:52:53.674Z,5.33
2017-12-30T08:53:53.689Z,5.30
2017-12-30T08:54:53.671Z,5.32
2017-12-30T08:55:53.710Z,5.32
2017-12-30T08:56:53.670Z,5.32
2017-12-30T08:57:55.768Z,5.32
2017-12-30T08:58:53.678Z,5.32
2017-12-30T08:59:53.740Z,5.32
2017-12-30T09:00:53.673Z,5.33
2017-12-30T09:01:55.691Z,5.33
2017-12-30T09:02:53.704Z,5.33
2017-12-30T09:03:55.712Z,5.33
2017-12-30T09:04:53.683Z,5.34
2017-12-30T09:05:55.726Z,5.34
2017-12-30T09:06:53.681Z,5.33
2017-12-30T09:07:53.789Z,5.33
2017-12-30T09:08:53.678Z,5.33
2017-12-30T09:09:53.702Z,5.34
2017-12-30T09:10:53.679Z,5.33
2017-12-30T09:11:53.714Z,5.34
2017-12-30T09:12:53.676Z,5.33
2017-12-30T09:13:55.780Z,5.34
2017-12-30T09:14:53.680Z,5.33
2017-12-30T09:15:53.742Z,5.33
2017-12-30T09:16:53.675Z,5.33
2017-12-30T09:17:54.780Z,5.34
2017-12-30T09:18:53.681Z,5.34
2017-12-30T09:19:53.767Z,5.34
2017-12-30T09:20:53.670Z,5.33
2017-12-30T09:21:53.784Z,5.34
2017-12-30T09:22:53.682Z,5.34
2017-12-30T09:24:04.695Z,5.34
2017-12-30T09:24:53.681Z,5.34
2017-12-30T09:26:06.710Z,5.36
2017-12-30T09:26:53.682Z,5.36
2017-12-30T09:27:53.718Z,5.34
2017-12-30T09:28:53.681Z,5.34
2017-12-30T09:29:54.770Z,5.34
2017-12-30T09:30:53.694Z,5.34
2017-12-30T09:31:55.798Z,5.34
2017-12-30T09:32:53.698Z,5.34
2017-12-30T09:33:53.756Z,5.34
2017-12-30T09:34:53.682Z,5.34
2017-12-30T09:35:54.795Z,5.34
2017-12-30T09:36:53.693Z,5.36
2017-12-30T09:37:54.716Z,5.34
2017-12-30T09:38:53.687Z,5.34
2017-12-30T09:39:54.725Z,5.36
2017-12-30T09:40:53.693Z,5.36
2017-12-30T09:42:05.693Z,5.34
2017-12-30T09:42:53.690Z,5.36
2017-12-30T09:43:54.749Z,5.34
2017-12-30T09:44:53.698Z,5.36
2017-12-30T09:45:54.762Z,5.34
2017-12-30T09:46:53.690Z,5.34
2017-12-30T09:47:55.803Z,5.36
2017-12-30T09:48:53.691Z,5.37
2017-12-30T09:49:54.789Z,5.43
2017-12-30T09:50:53.688Z,5.44
2017-12-30T09:51:59.618Z,5.43
2017-12-30T09:52:53.691Z,5.44
2017-12-30T09:53:59.630Z,5.44
2017-12-30T09:54:53.694Z,5.44
2017-12-30T09:55:54.725Z,5.43
2017-12-30T09:56:53.696Z,5.43
2017-12-30T09:57:53.717Z,5.41
2017-12-30T09:58:53.689Z,5.41
2017-12-30T09:59:59.668Z,5.43
2017-12-30T10:00:53.697Z,5.43
2017-12-30T10:01:58.661Z,5.41
2017-12-30T10:02:53.696Z,5.41
2017-12-30T10:03:55.803Z,5.40
2017-12-30T10:04:53.700Z,5.41
2017-12-30T10:05:53.772Z,5.40
2017-12-30T10:06:53.701Z,5.41
2017-12-30T10:07:53.784Z,5.41
2017-12-30T10:08:53.698Z,5.43
2017-12-30T10:09:53.794Z,5.40
2017-12-30T10:10:53.699Z,5.40
2017-12-30T10:12:06.721Z,5.41
2017-12-30T10:12:53.698Z,5.41
2017-12-30T10:13:53.729Z,5.41
2017-12-30T10:14:53.700Z,5.40
2017-12-30T10:15:54.760Z,5.40
2017-12-30T10:16:53.704Z,5.41
2017-12-30T10:17:53.701Z,5.41
2017-12-30T10:18:53.701Z,5.43
2017-12-30T10:19:54.786Z,5.41
2017-12-30T10:20:53.701Z,5.41
2017-12-30T10:21:53.702Z,5.43
2017-12-30T10:22:55.730Z,5.41
2017-12-30T10:23:53.708Z,5.41
2017-12-30T10:24:58.611Z,5.41
2017-12-30T10:25:53.703Z,5.43
2017-12-30T10:26:53.812Z,5.43
2017-12-30T10:27:53.703Z,5.43
2017-12-30T10:28:54.743Z,5.43
2017-12-30T10:29:53.705Z,5.41
2017-12-30T10:30:59.680Z,5.43
2017-12-30T10:31:53.719Z,5.44
2017-12-30T10:32:59.688Z,5.44
2017-12-30T10:33:53.705Z,5.43
2017-12-30T10:34:55.810Z,5.41
2017-12-30T10:35:53.708Z,5.43
2017-12-30T10:36:54.805Z,5.43
2017-12-30T10:37:53.709Z,5.44
2017-12-30T10:38:55.742Z,5.43
2017-12-30T10:39:53.706Z,5.44
2017-12-30T10:40:55.750Z,5.44
2017-12-30T10:41:53.709Z,5.43
2017-12-30T10:42:54.738Z,5.44
2017-12-30T10:43:53.711Z,5.43
2017-12-30T10:44:53.740Z,5.47
2017-12-30T10:45:53.716Z,5.47
2017-12-30T10:46:58.659Z,5.44
2017-12-30T10:47:53.709Z,5.44
2017-12-30T10:48:55.801Z,5.47
2017-12-30T10:49:53.720Z,5.44
2017-12-30T10:50:54.794Z,5.44
2017-12-30T10:51:53.717Z,5.44
2017-12-30T10:52:53.878Z,5.47
2017-12-30T10:53:53.714Z,5.47
2017-12-30T10:54:54.826Z,5.48
2017-12-30T10:55:53.716Z,5.48
2017-12-30T10:56:53.815Z,5.47
2017-12-30T10:57:53.720Z,5.50
2017-12-30T10:58:53.717Z,5.48
2017-12-30T10:59:53.716Z,5.48
2017-12-30T11:00:53.716Z,5.50
2017-12-30T11:01:55.792Z,5.50
2017-12-30T11:02:53.717Z,5.50
2017-12-30T11:03:53.757Z,5.51
2017-12-30T11:04:53.722Z,5.50
2017-12-30T11:06:08.619Z,5.50
2017-12-30T11:06:53.719Z,5.51
2017-12-30T11:07:55.833Z,5.51
2017-12-30T11:08:53.721Z,5.51
2017-12-30T11:09:54.820Z,5.51
2017-12-30T11:10:53.725Z,5.50
2017-12-30T11:11:53.809Z,5.50
2017-12-30T11:12:53.719Z,5.51
2017-12-30T11:13:53.726Z,5.51
2017-12-30T11:14:53.724Z,5.51
2017-12-30T11:15:53.731Z,5.52
2017-12-30T11:16:53.740Z,5.52
2017-12-30T11:17:53.726Z,5.52
2017-12-30T11:18:54.783Z,5.52
2017-12-30T11:19:53.733Z,5.54
2017-12-30T11:20:58.682Z,5.54
2017-12-30T11:21:53.727Z,5.54
2017-12-30T11:22:58.695Z,5.54
2017-12-30T11:23:53.729Z,5.54
2017-12-30T11:24:53.794Z,5.52
2017-12-30T11:25:53.730Z,5.55
2017-12-30T11:26:53.808Z,5.54
2017-12-30T11:27:53.731Z,5.55
2017-12-30T11:28:53.822Z,5.55
2017-12-30T11:29:53.727Z,5.55
2017-12-30T11:30:58.660Z,5.57
2017-12-30T11:31:53.734Z,5.55
2017-12-30T11:32:54.805Z,5.55
2017-12-30T11:33:53.733Z,5.55
2017-12-30T11:34:55.810Z,5.55
2017-12-30T11:35:53.735Z,5.57
2017-12-30T11:36:53.770Z,5.58
2017-12-30T11:37:53.736Z,5.57
2017-12-30T11:38:58.749Z,5.57
2017-12-30T11:39:53.734Z,5.55
2017-12-30T11:40:53.804Z,5.57
2017-12-30T11:41:53.740Z,5.58
2017-12-30T11:42:53.817Z,5.59
2017-12-30T11:43:53.736Z,5.59
2017-12-30T11:44:55.776Z,5.59
2017-12-30T11:45:53.737Z,5.58
2017-12-30T11:46:58.659Z,5.61
2017-12-30T11:47:53.735Z,5.59
2017-12-30T11:48:54.778Z,5.61
2017-12-30T11:49:53.737Z,5.61
2017-12-30T11:50:53.767Z,5.61
2017-12-30T11:51:53.738Z,5.62
2017-12-30T11:53:06.692Z,5.62
2017-12-30T11:53:53.745Z,5.65
2017-12-30T11:54:58.711Z,5.65
2017-12-30T11:55:53.741Z,5.65
2017-12-30T11:56:54.833Z,5.65
2017-12-30T11:57:53.742Z,5.65
2017-12-30T11:58:54.845Z,5.65
2017-12-30T11:59:53.746Z,5.65
2017-12-30T12:00:53.837Z,5.66
2017-12-30T12:01:53.748Z,5.66
2017-12-30T12:02:58.664Z,5.66
2017-12-30T12:03:53.744Z,5.69
2017-12-30T12:04:58.677Z,5.67
2017-12-30T12:05:53.744Z,5.67
2017-12-30T12:06:53.791Z,5.67
2017-12-30T12:07:53.747Z,5.69
2017-12-30T12:08:58.704Z,5.69
2017-12-30T12:09:53.751Z,5.69
2017-12-30T12:10:54.823Z,5.69
2017-12-30T12:11:53.751Z,5.70
2017-12-30T12:12:54.838Z,5.70
2017-12-30T12:13:53.752Z,5.72
2017-12-30T12:14:54.856Z,5.70
2017-12-30T12:15:53.752Z,5.73
2017-12-30T12:16:55.783Z,5.73
2017-12-30T12:17:53.760Z,5.73
2017-12-30T12:19:00.717Z,5.75
2017-12-30T12:19:53.757Z,5.75
2017-12-30T12:20:53.772Z,5.73
2017-12-30T12:21:53.756Z,5.75
2017-12-30T12:22:54.810Z,5.75
2017-12-30T12:23:53.755Z,5.75
2017-12-30T12:25:10.693Z,5.75
2017-12-30T12:25:53.754Z,5.76
2017-12-30T12:27:05.694Z,5.76
2017-12-30T12:27:53.768Z,5.77
2017-12-30T12:29:04.673Z,5.77
2017-12-30T12:29:53.766Z,5.77
2017-12-30T12:31:00.692Z,5.77
2017-12-30T12:31:53.759Z,5.79
2017-12-30T12:32:59.700Z,5.80
2017-12-30T12:33:53.773Z,5.79
2017-12-30T12:34:54.788Z,5.80
2017-12-30T12:35:53.766Z,5.79
2017-12-30T12:36:53.877Z,5.82
2017-12-30T12:37:53.768Z,5.82
2017-12-30T12:39:18.669Z,5.82
2017-12-30T12:39:53.764Z,5.84
2017-12-30T12:40:53.807Z,5.85
2017-12-30T12:41:53.770Z,5.87
2017-12-30T12:42:55.859Z,5.88
2017-12-30T12:43:53.770Z,5.88
2017-12-30T12:45:00.691Z,5.90
2017-12-30T12:45:53.772Z,5.91
2017-12-30T12:47:00.699Z,5.88
2017-12-30T12:47:53.774Z,5.90
2017-12-30T12:48:58.672Z,5.90
2017-12-30T12:49:53.778Z,5.91
2017-12-30T12:50:53.866Z,5.93
2017-12-30T12:51:53.773Z,5.93
2017-12-30T12:52:55.831Z,5.94
2017-12-30T12:53:53.768Z,5.94
2017-12-30T12:54:54.822Z,5.94
2017-12-30T12:55:53.775Z,5.95
2017-12-30T12:56:59.647Z,5.94
2017-12-30T12:57:53.773Z,5.95
2017-12-30T12:59:00.690Z,5.95
2017-12-30T12:59:53.780Z,5.97
2017-12-30T13:00:54.872Z,5.97
2017-12-30T13:01:53.781Z,5.97
2017-12-30T13:02:58.668Z,5.97
2017-12-30T13:03:53.787Z,6.00
2017-12-30T13:04:54.895Z,6.00
2017-12-30T13:05:53.783Z,6.00
2017-12-30T13:06:54.799Z,6.00
2017-12-30T13:07:53.782Z,6.02
2017-12-30T13:08:58.717Z,6.03
2017-12-30T13:09:53.784Z,6.03
2017-12-30T13:10:55.846Z,6.02
2017-12-30T13:11:53.791Z,6.05
2017-12-30T13:12:55.871Z,6.05
2017-12-30T13:13:53.793Z,6.05
2017-12-30T13:14:53.833Z,6.06
2017-12-30T13:15:53.789Z,6.08
2017-12-30T13:16:53.849Z,6.06
2017-12-30T13:17:53.793Z,6.08
2017-12-30T13:18:58.661Z,6.15
2017-12-30T13:19:53.797Z,6.16
2017-12-30T13:20:53.873Z,6.15
2017-12-30T13:21:53.810Z,6.15
2017-12-30T13:23:04.634Z,6.16
2017-12-30T13:23:53.813Z,6.16
2017-12-30T13:24:53.800Z,6.18
2017-12-30T13:25:53.799Z,6.18
2017-12-30T13:27:10.755Z,6.18
2017-12-30T13:27:53.804Z,6.19
2017-12-30T13:28:54.843Z,6.18
2017-12-30T13:30:04.678Z,6.19
2017-12-30T13:30:53.799Z,6.19
2017-12-30T13:31:53.840Z,6.19
2017-12-30T13:32:53.799Z,6.21
2017-12-30T13:33:53.855Z,6.21
2017-12-30T13:34:53.806Z,6.24
2017-12-30T13:35:59.702Z,6.24
2017-12-30T13:36:53.805Z,6.25
2017-12-30T13:37:55.825Z,6.27
2017-12-30T13:38:53.811Z,6.25
2017-12-30T13:40:10.689Z,6.27
2017-12-30T13:40:53.805Z,6.27
2017-12-30T13:41:54.829Z,6.27
2017-12-30T13:42:53.810Z,6.27
2017-12-30T13:43:55.875Z,6.27
2017-12-30T13:44:53.818Z,6.28
2017-12-30T13:45:53.835Z,6.28
2017-12-30T13:46:53.809Z,6.31
2017-12-30T13:47:54.872Z,6.31
2017-12-30T13:48:53.841Z,6.30
2017-12-30T13:49:54.890Z,6.30
2017-12-30T13:50:53.819Z,6.31
2017-12-30T13:51:58.688Z,6.32
2017-12-30T13:52:53.816Z,6.34
2017-12-30T13:53:59.728Z,6.34
2017-12-30T13:54:53.821Z,6.34
2017-12-30T13:55:55.851Z,6.35
2017-12-30T13:56:53.822Z,6.37
2017-12-30T13:58:08.663Z,6.35
2017-12-30T13:58:53.833Z,6.38
2017-12-30T13:59:55.889Z,6.38
2017-12-30T14:00:53.832Z,6.40
2017-12-30T14:02:00.706Z,6.38
2017-12-30T14:02:53.832Z,6.38
2017-12-30T14:03:55.916Z,6.40
2017-12-30T14:04:53.845Z,6.42
2017-12-30T14:05:53.869Z,6.42
2017-12-30T14:06:53.835Z,6.42
2017-12-30T14:07:55.947Z,6.43
2017-12-30T14:08:53.840Z,6.43
2017-12-30T14:09:58.717Z,6.43
2017-12-30T14:10:53.839Z,6.45
2017-12-30T14:11:54.933Z,6.43
2017-12-30T14:12:53.838Z,6.46
2017-12-30T14:14:05.702Z,6.46
2017-12-30T14:14:53.841Z,6.46
2017-12-30T14:16:04.692Z,6.47
2017-12-30T14:16:53.849Z,6.49
2017-12-30T14:18:14.952Z,6.49
2017-12-30T14:18:53.865Z,6.49
2017-12-30T14:19:54.906Z,6.49
2017-12-30T14:20:53.849Z,6.50
2017-12-30T14:21:59.736Z,6.53
2017-12-30T14:22:53.852Z,6.52
2017-12-30T14:23:54.908Z,6.53
2017-12-30T14:24:53.872Z,6.52
2017-12-30T14:25:54.933Z,6.53
2017-12-30T14:26:53.855Z,6.55
2017-12-30T14:27:53.921Z,6.56
2017-12-30T14:28:53.865Z,6.56
2017-12-30T14:29:54.970Z,6.56
2017-12-30T14:30:53.852Z,6.57
2017-12-30T14:31:58.657Z,6.57
2017-12-30T14:32:53.862Z,6.60
2017-12-30T14:34:10.647Z,6.61
2017-12-30T14:34:53.866Z,6.60
2017-12-30T14:35:58.683Z,6.60
2017-12-30T14:36:53.881Z,6.61
2017-12-30T14:37:55.931Z,6.61
2017-12-30T14:38:53.872Z,6.63
2017-12-30T14:39:54.919Z,6.64
2017-12-30T14:40:53.879Z,6.65
2017-12-30T14:41:54.940Z,6.64
2017-12-30T14:42:53.878Z,6.65
2017-12-30T14:43:54.943Z,6.67
2017-12-30T14:44:53.877Z,6.65
2017-12-30T14:45:58.643Z,6.65
2017-12-30T14:46:53.877Z,6.67
2017-12-30T14:47:53.950Z,6.68
2017-12-30T14:48:53.951Z,6.68
2017-12-30T14:49:54.996Z,6.70
2017-12-30T14:50:53.879Z,6.70
2017-12-30T14:52:15.999Z,6.70
2017-12-30T14:52:53.880Z,6.71
2017-12-30T14:53:53.884Z,6.73
2017-12-30T14:55:18.682Z,6.71
2017-12-30T14:55:53.909Z,6.73
2017-12-30T14:56:53.888Z,6.74
2017-12-30T14:57:59.759Z,6.73
2017-12-30T14:58:53.895Z,6.74
2017-12-30T14:59:53.936Z,6.74
2017-12-30T15:00:53.900Z,6.75
2017-12-30T15:01:53.944Z,6.78
2017-12-30T15:02:53.893Z,6.78
2017-12-30T15:03:58.666Z,6.79
2017-12-30T15:04:58.675Z,6.79
2017-12-30T15:05:53.903Z,6.79
2017-12-30T15:07:04.731Z,6.79
2017-12-30T15:07:53.906Z,6.81
2017-12-30T15:08:53.994Z,6.81
2017-12-30T15:09:53.904Z,6.79
2017-12-30T15:10:58.712Z,6.83
2017-12-30T15:11:53.908Z,6.83
2017-12-30T15:12:55.967Z,6.91
2017-12-30T15:13:53.911Z,6.93
2017-12-30T15:15:08.673Z,7.01
2017-12-30T15:15:53.905Z,7.04
2017-12-30T15:16:53.911Z,7.08
2017-12-30T15:17:53.946Z,7.11
2017-12-30T15:18:53.926Z,7.15
2017-12-30T15:19:53.961Z,7.15
2017-12-30T15:20:53.921Z,7.21
2017-12-30T15:21:54.284Z,7.25
2017-12-30T15:22:53.920Z,7.25
2017-12-30T15:23:55.011Z,7.29
2017-12-30T15:24:53.927Z,7.28
2017-12-30T15:26:08.745Z,7.33
2017-12-30T15:26:53.927Z,7.34
2017-12-30T15:27:53.927Z,7.37
2017-12-30T15:28:54.239Z,7.37
2017-12-30T15:29:54.030Z,7.40
2017-12-30T15:30:53.929Z,7.42
2017-12-30T15:31:54.966Z,7.43
2017-12-30T15:32:53.937Z,7.43
2017-12-30T15:33:54.979Z,7.44
2017-12-30T15:34:53.951Z,7.47
2017-12-30T15:35:53.984Z,7.46
2017-12-30T15:36:53.943Z,7.47
2017-12-30T15:38:04.728Z,7.49
2017-12-30T15:38:53.944Z,7.52
2017-12-30T15:40:08.741Z,7.54
2017-12-30T15:40:53.952Z,7.54
2017-12-30T15:42:06.705Z,7.55
2017-12-30T15:42:53.952Z,7.57
2017-12-30T15:44:04.672Z,7.57
2017-12-30T15:44:53.955Z,7.58
2017-12-30T15:45:55.978Z,7.58
2017-12-30T15:46:53.968Z,7.61
2017-12-30T15:47:54.046Z,7.62
2017-12-30T15:48:53.967Z,7.61
2017-12-30T15:49:54.990Z,7.64
2017-12-30T15:50:53.967Z,7.66
2017-12-30T15:51:58.684Z,7.66
2017-12-30T15:52:53.986Z,7.68
2017-12-30T15:53:55.014Z,7.68
2017-12-30T15:54:53.976Z,7.68
2017-12-30T15:55:56.052Z,7.69
2017-12-30T15:56:54.001Z,7.71
2017-12-30T15:57:56.061Z,7.71
2017-12-30T15:58:53.981Z,7.73
2017-12-30T15:59:59.763Z,7.73
2017-12-30T16:00:53.988Z,7.73
2017-12-30T16:01:54.043Z,7.74
2017-12-30T16:02:53.994Z,7.74
2017-12-30T16:03:56.105Z,7.76
2017-12-30T16:04:53.998Z,7.77
2017-12-30T16:05:58.678Z,7.78
2017-12-30T16:06:54.001Z,7.78
2017-12-30T16:07:55.109Z,7.78
2017-12-30T16:08:54.001Z,7.80
2017-12-30T16:09:56.042Z,7.80
2017-12-30T16:10:54.004Z,7.80
2017-12-30T16:12:06.706Z,7.83
2017-12-30T16:12:54.005Z,7.81
2017-12-30T16:13:54.125Z,7.80
2017-12-30T16:14:54.010Z,7.81
2017-12-30T16:15:54.036Z,7.81
2017-12-30T16:16:54.018Z,7.83
2017-12-30T16:17:54.048Z,7.83
2017-12-30T16:18:54.034Z,7.84
2017-12-30T16:19:54.060Z,7.86
2017-12-30T16:20:54.029Z,7.87
2017-12-30T16:21:54.028Z,7.87
2017-12-30T16:22:54.084Z,7.88
2017-12-30T16:23:54.089Z,7.88
2017-12-30T16:25:09.655Z,7.91
2017-12-30T16:25:54.037Z,7.91
2017-12-30T16:26:55.134Z,7.91
2017-12-30T16:27:54.096Z,7.92
2017-12-30T16:28:58.731Z,7.92
2017-12-30T16:29:54.047Z,7.91
2017-12-30T16:30:56.085Z,7.94
2017-12-30T16:31:54.049Z,7.92
2017-12-30T16:32:54.152Z,7.95
2017-12-30T16:33:54.048Z,7.95
2017-12-30T16:34:59.699Z,7.96
2017-12-30T16:35:54.056Z,7.96
2017-12-30T16:36:54.076Z,7.96
2017-12-30T16:37:54.060Z,7.96
2017-12-30T16:39:04.737Z,7.96
2017-12-30T16:39:54.059Z,7.98
2017-12-30T16:40:55.124Z,7.98
2017-12-30T16:41:54.070Z,7.98
2017-12-30T16:42:55.136Z,8.01
2017-12-30T16:43:54.069Z,8.01
2017-12-30T16:44:56.176Z,8.02
2017-12-30T16:45:54.082Z,8.01
2017-12-30T16:46:58.752Z,8.01
2017-12-30T16:47:54.077Z,8.02
2017-12-30T16:48:56.103Z,8.04
2017-12-30T16:49:54.084Z,8.04
2017-12-30T16:50:58.676Z,8.02
2017-12-30T16:51:54.077Z,8.04
2017-12-30T16:52:54.195Z,8.04
2017-12-30T16:53:54.090Z,8.04
2017-12-30T16:54:54.207Z,8.02
2017-12-30T16:55:54.094Z,8.04
2017-12-30T16:57:04.764Z,8.05
2017-12-30T16:57:54.098Z,8.04
2017-12-30T16:58:59.762Z,8.05
2017-12-30T16:59:54.107Z,8.06
2017-12-30T17:00:55.167Z,8.05
2017-12-30T17:01:54.111Z,8.06
2017-12-30T17:02:54.151Z,8.21
2017-12-30T17:03:54.969Z,8.26
2017-12-30T17:04:54.984Z,8.23
2017-12-30T17:05:54.956Z,8.20
2017-12-30T17:06:55.001Z,8.21
2017-12-30T17:07:54.981Z,8.21
2017-12-30T17:08:55.006Z,8.20
2017-12-30T17:09:54.965Z,8.21
2017-12-30T17:10:55.030Z,8.21
2017-12-30T17:11:54.977Z,8.21
2017-12-30T17:12:55.044Z,8.20
2017-12-30T17:13:54.980Z,8.21
2017-12-30T17:14:55.062Z,8.20
2017-12-30T17:15:54.983Z,8.21
2017-12-30T17:16:56.093Z,8.21
2017-12-30T17:17:54.987Z,8.21
2017-12-30T17:18:55.080Z,8.20
2017-12-30T17:19:55.002Z,8.21
2017-12-30T17:20:55.093Z,8.21
2017-12-30T17:21:54.997Z,8.20
2017-12-30T17:22:55.113Z,8.20
2017-12-30T17:23:55.014Z,8.21
2017-12-30T17:24:55.120Z,8.21
2017-12-30T17:25:55.009Z,8.21
2017-12-30T17:26:55.032Z,8.21
2017-12-30T17:27:55.010Z,8.23
2017-12-30T17:28:55.047Z,8.21
2017-12-30T17:29:55.047Z,8.21
2017-12-30T17:30:55.058Z,8.21
2017-12-30T17:31:55.015Z,8.23
2017-12-30T17:32:55.072Z,8.23
2017-12-30T17:33:55.025Z,8.21
2017-12-30T17:34:55.087Z,8.21
2017-12-30T17:35:55.029Z,8.21
2017-12-30T17:36:55.098Z,8.23
2017-12-30T17:37:55.041Z,8.23
2017-12-30T17:38:55.104Z,8.23
2017-12-30T17:39:55.039Z,8.23
2017-12-30T17:40:55.132Z,8.23
2017-12-30T17:41:55.050Z,8.23
2017-12-30T17:42:55.140Z,8.24
2017-12-30T17:43:55.046Z,8.24
2017-12-30T17:44:55.158Z,8.24
2017-12-30T17:45:55.050Z,8.24
2017-12-30T17:46:55.161Z,8.24
2017-12-30T17:47:55.062Z,8.26
2017-12-30T17:48:55.131Z,8.24
2017-12-30T17:49:55.068Z,8.24
2017-12-30T17:50:55.095Z,8.26
2017-12-30T17:51:55.079Z,8.24
2017-12-30T17:52:55.105Z,8.26
2017-12-30T17:53:55.075Z,8.28
2017-12-30T17:54:55.122Z,8.24
2017-12-30T17:55:55.075Z,8.28
2017-12-30T17:56:55.137Z,8.26
2017-12-30T17:57:55.083Z,8.28
2017-12-30T17:58:55.149Z,8.28
2017-12-30T17:59:55.088Z,8.28
2017-12-30T18:00:55.163Z,8.28
2017-12-30T18:01:55.091Z,8.28
2017-12-30T18:02:55.184Z,8.28
2017-12-30T18:03:55.108Z,8.28
2017-12-30T18:04:55.190Z,8.28
2017-12-30T18:05:55.100Z,8.29
2017-12-30T18:06:55.200Z,8.29
2017-12-30T18:07:55.106Z,8.29
2017-12-30T18:08:55.215Z,8.31
2017-12-30T18:09:55.111Z,8.29
2017-12-30T18:10:55.230Z,8.29
2017-12-30T18:11:55.116Z,8.31
2017-12-30T18:12:55.137Z,8.31
2017-12-30T18:13:55.120Z,8.31
2017-12-30T18:14:55.153Z,8.32
2017-12-30T18:15:55.131Z,8.31
2017-12-30T18:16:55.190Z,8.31
2017-12-30T18:17:55.135Z,8.32
2017-12-30T18:18:57.228Z,8.32
2017-12-30T18:19:55.134Z,8.32
2017-12-30T18:20:55.196Z,8.32
2017-12-30T18:21:55.143Z,8.32
2017-12-30T18:22:55.205Z,8.34
2017-12-30T18:23:55.142Z,8.32
2017-12-30T18:24:55.217Z,8.32
2017-12-30T18:25:55.151Z,8.34
2017-12-30T18:26:55.235Z,8.34
2017-12-30T18:27:55.156Z,8.32
2017-12-30T18:28:55.243Z,8.34
2017-12-30T18:29:55.166Z,8.34
2017-12-30T18:30:55.261Z,8.35
2017-12-30T18:31:55.166Z,8.35
2017-12-30T18:32:56.195Z,8.37
2017-12-30T18:33:55.169Z,8.37
2017-12-30T18:34:55.237Z,8.35
2017-12-30T18:35:55.167Z,8.35
2017-12-30T18:36:55.202Z,8.37
2017-12-30T18:37:55.178Z,8.37
2017-12-30T18:38:56.236Z,8.37
2017-12-30T18:39:55.184Z,8.38
2017-12-30T18:40:55.238Z,8.37
2017-12-30T18:41:55.193Z,8.38
2017-12-30T18:42:55.239Z,8.38
2017-12-30T18:43:55.199Z,8.38
2017-12-30T18:44:57.301Z,8.38
2017-12-30T18:45:55.244Z,8.38
2017-12-30T18:46:55.267Z,8.39
2017-12-30T18:47:55.201Z,8.41
2017-12-30T18:48:57.227Z,8.41
2017-12-30T18:49:55.213Z,8.39
2017-12-30T18:50:57.240Z,8.41
2017-12-30T18:51:55.214Z,8.41
2017-12-30T18:52:56.234Z,8.41
2017-12-30T18:53:55.221Z,8.41
2017-12-30T18:54:57.271Z,8.41
2017-12-30T18:55:55.230Z,8.41
2017-12-30T18:56:55.338Z,8.42
2017-12-30T18:57:55.230Z,8.41
2017-12-30T18:58:57.301Z,8.42
2017-12-30T18:59:55.234Z,8.41
2017-12-30T19:00:57.310Z,8.41
2017-12-30T19:01:55.242Z,8.41
2017-12-30T19:02:55.269Z,8.42
2017-12-30T19:03:55.244Z,8.42
2017-12-30T19:04:55.289Z,8.44
2017-12-30T19:05:55.250Z,8.44
2017-12-30T19:06:55.302Z,8.44
2017-12-30T19:07:55.294Z,8.46
2017-12-30T19:08:56.343Z,8.47
2017-12-30T19:09:55.261Z,8.47
2017-12-30T19:10:55.360Z,8.46
2017-12-30T19:11:55.286Z,8.47
2017-12-30T19:12:55.350Z,8.47
2017-12-30T19:13:55.275Z,8.46
2017-12-30T19:14:55.356Z,8.46
2017-12-30T19:15:55.273Z,8.49
2017-12-30T19:16:55.366Z,8.47
2017-12-30T19:17:55.279Z,8.47
2017-12-30T19:18:55.387Z,8.47
2017-12-30T19:19:55.283Z,8.47
2017-12-30T19:20:55.396Z,8.49
2017-12-30T19:21:55.290Z,8.49
2017-12-30T19:22:55.313Z,8.49
2017-12-30T19:23:55.300Z,8.49
2017-12-30T19:24:56.359Z,8.50
2017-12-30T19:25:55.300Z,8.52
2017-12-30T19:26:55.332Z,8.50
2017-12-30T19:27:55.305Z,8.50
2017-12-30T19:28:55.352Z,8.52
2017-12-30T19:29:55.316Z,8.52
2017-12-30T19:30:57.412Z,8.53
2017-12-30T19:31:55.319Z,8.53
2017-12-30T19:32:55.376Z,8.55
2017-12-30T19:33:55.321Z,8.53
2017-12-30T19:34:55.393Z,8.55
2017-12-30T19:35:55.326Z,8.55
2017-12-30T19:36:55.405Z,8.55
2017-12-30T19:37:55.334Z,8.55
2017-12-30T19:38:57.366Z,8.56
2017-12-30T19:39:55.341Z,8.56
2017-12-30T19:40:55.430Z,8.56
2017-12-30T19:41:55.341Z,8.57
2017-12-30T19:42:55.451Z,8.56
2017-12-30T19:43:55.345Z,8.57
2017-12-30T19:45:11.168Z,8.57
2017-12-30T19:45:55.363Z,8.59
2017-12-30T19:46:57.458Z,8.59
2017-12-30T19:47:55.362Z,8.59
2017-12-30T19:48:57.520Z,8.59
2017-12-30T19:49:55.389Z,8.59
2017-12-30T19:51:10.189Z,8.60
2017-12-30T19:51:55.377Z,8.60
2017-12-30T19:53:11.217Z,8.60
2017-12-30T19:53:55.372Z,8.60
2017-12-30T19:55:29.153Z,8.60
2017-12-30T19:55:55.386Z,8.62
2017-12-30T19:56:55.477Z,8.60
2017-12-30T19:57:55.383Z,8.60
2017-12-30T19:59:07.161Z,8.60
2017-12-30T19:59:55.392Z,8.62
